Time;durP1;ratioP1;P1;durP2;ratioP2;P2;SDS_P1;SDS_P2;PMS_P1;PMS_P2;Temp;Humidity;BMP_temperature;BMP_pressure;BME280_temperature;BME280_humidity;BME280_pressure;Samples;Min_cycle;Max_cycle;Signal;HPM_P1;HPM_P2
2021/11/15 00:04:34;;;;;;;4.55;2.70;;;17.50;70.50;;;;;;10333414;28;20026;-59
2021/11/15 00:09:35;;;;;;;4.18;2.92;;;17.60;69.80;;;;;;10341431;28;20043;-59
2021/11/15 00:14:36;;;;;;;3.72;2.92;;;17.60;69.70;;;;;;10371836;28;20580;-60
2021/11/15 00:19:37;;;;;;;4.10;2.92;;;17.70;69.30;;;;;;10344605;28;20088;-60
2021/11/15 00:24:37;;;;;;;3.28;2.60;;;17.70;69.20;;;;;;10332935;28;20341;-59
2021/11/15 00:29:38;;;;;;;4.43;3.10;;;17.70;69.20;;;;;;10344885;28;20038;-60
2021/11/15 00:34:39;;;;;;;3.67;2.58;;;17.70;69.40;;;;;;10373077;28;20378;-60
2021/11/15 00:39:40;;;;;;;3.95;2.95;;;17.60;69.50;;;;;;10372668;28;20041;-59
2021/11/15 00:44:41;;;;;;;4.03;2.70;;;17.60;69.60;;;;;;10372794;28;20113;-59
2021/11/15 00:49:42;;;;;;;3.60;2.90;;;17.70;69.80;;;;;;10359390;28;20054;-59
2021/11/15 00:54:42;;;;;;;3.67;2.83;;;17.60;69.40;;;;;;10336969;28;20026;-60
2021/11/15 00:59:43;;;;;;;3.88;3.17;;;17.60;69.40;;;;;;10356634;28;20026;-60
2021/11/15 01:04:44;;;;;;;3.90;2.83;;;17.60;69.50;;;;;;10337438;28;20105;-59
2021/11/15 01:09:45;;;;;;;4.43;3.30;;;17.60;69.70;;;;;;10354041;28;20042;-60
2021/11/15 01:14:45;;;;;;;5.15;2.67;;;17.50;69.70;;;;;;10332295;28;20038;-59
2021/11/15 01:19:46;;;;;;;3.83;2.47;;;17.60;69.60;;;;;;10343587;28;20035;-58
2021/11/15 01:24:47;;;;;;;4.07;2.85;;;17.60;69.50;;;;;;10339804;28;20474;-60
2021/11/15 01:29:48;;;;;;;3.60;2.80;;;17.60;69.50;;;;;;10340818;28;20038;-59
2021/11/15 01:34:50;;;;;;;4.35;2.85;;;17.60;69.60;;;;;;10366306;28;20030;-59
2021/11/15 01:39:51;;;;;;;2.97;2.45;;;17.60;69.50;;;;;;10378485;28;20038;-60
2021/11/15 01:44:51;;;;;;;3.58;2.70;;;17.60;69.40;;;;;;10378189;28;20030;-60
2021/11/15 01:49:52;;;;;;;3.42;3.03;;;17.70;69.30;;;;;;10370410;28;20046;-60
2021/11/15 01:54:53;;;;;;;3.60;2.70;;;17.70;69.20;;;;;;10338717;28;20038;-59
2021/11/15 01:59:54;;;;;;;3.17;2.20;;;17.70;69.20;;;;;;10345528;28;20034;-60
2021/11/15 02:04:57;;;;;;;4.15;2.78;;;17.60;69.30;;;;;;10338458;28;20125;-60
2021/11/15 02:09:58;;;;;;;3.60;2.50;;;17.60;69.50;;;;;;10373648;28;20112;-60
2021/11/15 02:14:59;;;;;;;3.15;2.67;;;17.60;69.60;;;;;;10354408;28;20086;-60
2021/11/15 02:20:06;;;;;;;3.67;2.58;;;17.60;69.70;;;;;;10341892;28;20101;-58
2021/11/15 02:25:08;;;;;;;2.95;2.30;;;17.60;69.30;;;;;;10337621;28;20042;-60
2021/11/15 02:30:19;;;;;;;3.30;2.33;;;17.70;69.30;;;;;;10349218;28;20040;-60
2021/11/15 02:35:22;;;;;;;2.55;2.25;;;17.70;69.00;;;;;;10363304;28;20034;-59
2021/11/15 02:40:25;;;;;;;3.35;2.30;;;17.80;68.80;;;;;;10377257;28;20080;-59
2021/11/15 02:45:27;;;;;;;3.25;2.50;;;17.80;68.80;;;;;;10376350;28;20030;-59
2021/11/15 02:50:32;;;;;;;3.42;2.55;;;17.70;68.80;;;;;;10354015;28;20042;-60
2021/11/15 02:55:34;;;;;;;3.47;2.40;;;17.70;69.00;;;;;;10337654;28;20422;-60
2021/11/15 03:00:42;;;;;;;3.15;2.40;;;17.70;69.10;;;;;;10348994;28;20049;-59
2021/11/15 03:05:50;;;;;;;3.60;2.58;;;17.70;69.00;;;;;;10360854;28;20501;-60
2021/11/15 03:10:58;;;;;;;3.97;3.30;;;17.80;69.50;;;;;;10357026;28;20509;-59
2021/11/15 03:15:59;;;;;;;3.95;2.47;;;17.80;69.90;;;;;;10376368;28;20037;-60
2021/11/15 03:21:10;;;;;;;2.95;2.40;;;17.90;70.30;;;;;;10375511;28;20030;-59
2021/11/15 03:26:12;;;;;;;4.40;2.95;;;17.80;70.70;;;;;;10376079;28;20072;-60
2021/11/15 03:31:21;;;;;;;3.00;2.10;;;17.80;71.10;;;;;;10375575;28;20091;-60
2021/11/15 03:36:22;;;;;;;2.90;2.15;;;17.80;71.20;;;;;;10375478;28;20425;-60
2021/11/15 03:41:30;;;;;;;3.65;2.60;;;17.70;71.30;;;;;;10374256;28;20030;-59
2021/11/15 03:46:32;;;;;;;3.03;2.15;;;17.60;71.40;;;;;;10374607;28;20119;-60
2021/11/15 03:51:34;;;;;;;2.85;1.95;;;17.60;71.40;;;;;;10368871;28;20034;-60
2021/11/15 03:56:35;;;;;;;3.20;2.15;;;17.60;71.40;;;;;;10333775;28;20510;-60
2021/11/15 04:01:38;;;;;;;3.72;2.83;;;17.70;71.30;;;;;;10346499;28;20030;-59
2021/11/15 04:06:47;;;;;;;3.13;2.47;;;17.70;71.20;;;;;;10372987;28;20049;-60
2021/11/15 04:11:48;;;;;;;3.85;2.80;;;17.70;71.30;;;;;;10358231;28;20038;-60
2021/11/15 04:16:49;;;;;;;3.28;2.42;;;17.60;71.30;;;;;;10344608;28;20034;-60
2021/11/15 04:21:51;;;;;;;2.80;2.08;;;17.50;71.40;;;;;;10350383;28;20026;-60
2021/11/15 04:26:51;;;;;;;3.13;2.03;;;17.60;71.50;;;;;;10373749;28;20144;-60
2021/11/15 04:31:53;;;;;;;3.25;2.17;;;17.70;71.10;;;;;;10373472;28;20041;-60
2021/11/15 04:36:54;;;;;;;2.67;2.05;;;17.70;70.90;;;;;;10373142;28;20029;-60
2021/11/15 04:41:55;;;;;;;3.80;2.70;;;17.70;70.90;;;;;;10372868;28;20041;-60
2021/11/15 04:46:56;;;;;;;3.17;2.13;;;17.70;70.70;;;;;;10371449;28;20382;-59
2021/11/15 04:51:56;;;;;;;3.78;2.50;;;17.80;70.50;;;;;;10344792;28;20034;-60
2021/11/15 04:56:57;;;;;;;3.30;1.90;;;17.80;70.50;;;;;;10332085;28;20039;-60
2021/11/15 05:01:58;;;;;;;2.33;1.92;;;17.70;70.50;;;;;;10351065;28;20028;-59
2021/11/15 05:06:59;;;;;;;3.53;2.38;;;17.70;70.70;;;;;;10372419;28;20369;-60
2021/11/15 05:12:01;;;;;;;2.95;2.10;;;17.60;70.70;;;;;;10355399;28;20030;-59
2021/11/15 05:17:02;;;;;;;2.83;2.45;;;17.60;70.80;;;;;;10361403;28;20034;-59
2021/11/15 05:22:03;;;;;;;3.90;2.50;;;17.60;70.80;;;;;;10372100;28;20038;-59
2021/11/15 05:27:05;;;;;;;3.00;2.13;;;17.60;71.30;;;;;;10371935;28;20049;-60
2021/11/15 05:32:06;;;;;;;2.95;1.92;;;17.70;70.60;;;;;;10370279;28;20042;-60
2021/11/15 05:37:07;;;;;;;3.65;2.60;;;17.70;70.50;;;;;;10371343;28;20106;-60
2021/11/15 05:42:08;;;;;;;3.58;2.35;;;17.70;70.40;;;;;;10371754;28;20420;-59
2021/11/15 05:47:09;;;;;;;3.22;2.20;;;17.90;69.90;;;;;;10371373;28;20522;-58
2021/11/15 05:52:10;;;;;;;2.90;1.70;;;18.00;69.30;;;;;;10371224;28;20045;-60
2021/11/15 05:57:11;;;;;;;2.80;2.03;;;18.20;68.70;;;;;;10370063;28;20088;-60
2021/11/15 06:02:11;;;;;;;2.08;1.70;;;18.30;68.50;;;;;;10359032;28;20049;-59
2021/11/15 06:07:12;;;;;;;3.00;2.05;;;18.40;68.30;;;;;;10338194;28;20038;-59
2021/11/15 06:12:13;;;;;;;4.38;2.00;;;18.40;68.30;;;;;;10372509;28;20156;-58
2021/11/15 06:17:15;;;;;;;5.15;2.50;;;18.50;68.20;;;;;;10378366;28;20214;-60
2021/11/15 06:22:15;;;;;;;5.18;2.28;;;18.60;68.80;;;;;;10378216;28;20736;-59
2021/11/15 06:27:17;;;;;;;4.13;2.17;;;18.60;69.70;;;;;;10377976;28;20034;-60
2021/11/15 06:32:18;;;;;;;4.10;2.30;;;18.60;69.30;;;;;;10376218;28;20473;-60
2021/11/15 06:37:19;;;;;;;5.40;2.40;;;18.70;69.10;;;;;;10374674;28;20108;-61
2021/11/15 06:42:19;;;;;;;6.90;2.85;;;18.80;68.90;;;;;;10372422;28;20351;-60
2021/11/15 06:47:21;;;;;;;5.85;2.53;;;18.90;68.50;;;;;;10377217;28;20125;-60
2021/11/15 06:52:22;;;;;;;8.68;2.38;;;18.90;68.60;;;;;;10350789;28;20467;-61
2021/11/15 06:57:26;;;;;;;8.85;3.65;;;18.90;68.50;;;;;;10357034;28;20533;-61
2021/11/15 07:02:27;;;;;;;17.05;3.75;;;18.90;68.70;;;;;;10365689;28;20039;-60
2021/11/15 07:07:28;;;;;;;13.15;3.55;;;18.90;68.80;;;;;;10371523;28;20038;-58
2021/11/15 07:12:28;;;;;;;11.52;3.63;;;19.00;68.50;;;;;;10374110;28;20045;-61
2021/11/15 07:17:29;;;;;;;10.93;3.05;;;19.00;68.30;;;;;;10374581;28;20083;-61
2021/11/15 07:22:30;;;;;;;14.90;3.60;;;19.00;68.50;;;;;;10374802;28;20041;-61
2021/11/15 07:27:31;;;;;;;21.73;4.75;;;18.90;68.60;;;;;;10373144;28;20512;-59
2021/11/15 07:32:32;;;;;;;13.60;3.97;;;18.70;68.70;;;;;;10369152;28;20077;-59
2021/11/15 07:37:35;;;;;;;12.32;4.05;;;18.80;68.50;;;;;;10367782;28;20088;-59
2021/11/15 07:42:35;;;;;;;11.85;3.67;;;18.70;68.40;;;;;;10365464;28;20040;-59
2021/11/15 07:47:36;;;;;;;10.48;3.53;;;18.60;68.60;;;;;;10361583;28;20050;-59
2021/11/15 07:52:38;;;;;;;15.00;3.97;;;18.60;68.80;;;;;;10371429;28;20040;-59
2021/11/15 07:57:41;;;;;;;16.92;3.45;;;18.80;68.50;;;;;;10373555;28;20101;-60
2021/11/15 08:02:42;;;;;;;11.63;3.25;;;18.70;68.60;;;;;;10373937;28;20067;-58
2021/11/15 08:07:43;;;;;;;10.38;3.58;;;18.60;69.00;;;;;;10372306;28;20087;-60
2021/11/15 08:12:48;;;;;;;13.77;4.65;;;18.50;69.30;;;;;;10349102;28;20049;-60
2021/11/15 08:17:52;;;;;;;15.93;4.00;;;18.50;69.10;;;;;;10333004;28;20030;-60
2021/11/15 08:23:04;;;;;;;11.32;3.67;;;18.70;69.00;;;;;;10333127;28;20026;-60
2021/11/15 08:28:05;;;;;;;9.73;3.15;;;18.60;68.80;;;;;;10330163;28;20031;-60
2021/11/15 08:33:06;;;;;;;10.57;3.60;;;18.60;69.00;;;;;;10329706;28;20034;-60
2021/11/15 08:38:16;;;;;;;10.60;3.30;;;18.50;69.30;;;;;;10357446;28;20026;-60
2021/11/15 08:43:22;;;;;;;10.07;3.05;;;18.50;69.00;;;;;;10331512;28;20497;-61
2021/11/15 08:48:23;;;;;;;8.18;3.38;;;18.50;69.00;;;;;;10332197;28;20121;-60
2021/11/15 08:53:24;;;;;;;6.47;2.95;;;18.50;68.90;;;;;;10332532;28;20479;-60
2021/11/15 08:58:24;;;;;;;9.20;3.35;;;18.60;68.40;;;;;;10339804;28;20041;-60
2021/11/15 09:03:25;;;;;;;7.85;2.83;;;18.60;68.30;;;;;;10336180;28;20114;-60
2021/11/15 09:08:26;;;;;;;8.00;3.28;;;18.60;68.50;;;;;;10331926;28;20026;-60
2021/11/15 09:13:26;;;;;;;11.73;3.30;;;18.50;68.60;;;;;;10348356;28;20097;-60
2021/11/15 09:18:28;;;;;;;5.00;2.90;;;18.50;68.30;;;;;;10331665;28;20141;-60
2021/11/15 09:23:28;;;;;;;7.18;3.42;;;18.50;68.40;;;;;;10331637;28;20415;-60
2021/11/15 09:28:29;;;;;;;8.85;3.10;;;18.40;68.60;;;;;;10331455;28;20042;-59
2021/11/15 09:33:30;;;;;;;9.77;3.60;;;18.40;68.60;;;;;;10335697;28;20156;-60
2021/11/15 09:38:31;;;;;;;7.70;2.97;;;18.50;68.50;;;;;;10375143;28;20383;-60
2021/11/15 09:43:36;;;;;;;6.10;2.88;;;18.40;68.70;;;;;;10378239;28;20068;-60
2021/11/15 09:48:45;;;;;;;5.32;2.60;;;18.30;68.90;;;;;;10379394;28;20513;-59
2021/11/15 09:53:46;;;;;;;8.43;3.00;;;18.30;68.80;;;;;;10379383;28;20046;-60
2021/11/15 09:58:47;;;;;;;9.75;2.85;;;18.40;68.50;;;;;;10374752;28;20504;-60
2021/11/15 10:03:47;;;;;;;5.60;3.08;;;18.40;68.30;;;;;;10378875;28;20061;-60
2021/11/15 10:08:57;;;;;;;5.32;2.42;;;18.50;67.90;;;;;;10372763;28;20034;-60
2021/11/15 10:14:02;;;;;;;4.85;3.00;;;18.60;67.90;;;;;;10354687;28;20031;-60
2021/11/15 10:19:07;;;;;;;6.82;2.83;;;18.50;68.00;;;;;;10362991;28;20339;-60
2021/11/15 10:24:16;;;;;;;4.53;2.60;;;18.50;68.20;;;;;;10378393;28;20064;-60
2021/11/15 10:29:26;;;;;;;5.57;3.22;;;18.50;68.00;;;;;;10376586;28;20036;-59
2021/11/15 10:34:35;;;;;;;10.93;3.22;;;18.40;68.10;;;;;;10377973;28;20427;-60
2021/11/15 10:40:15;;;;;;;10.23;3.33;;;18.50;68.00;;;;;;10363792;28;20015;-60
2021/11/15 10:45:23;;;;;;;5.07;3.13;;;18.50;67.90;;;;;;10329974;28;20049;-60
2021/11/15 10:50:47;;;;;;;7.40;3.50;;;18.60;68.00;;;;;;10336342;28;20042;-59
2021/11/15 10:56:17;;;;;;;6.13;3.13;;;18.70;69.50;;;;;;10344180;28;20430;-60
2021/11/15 11:01:20;;;;;;;8.17;4.50;;;18.70;69.20;;;;;;10368871;28;20101;-59
2021/11/15 11:06:21;;;;;;;10.90;3.42;;;18.60;69.30;;;;;;10365774;28;20036;-60
2021/11/15 11:11:30;;;;;;;9.43;3.40;;;18.50;69.60;;;;;;10375177;28;20029;-61
2021/11/15 11:16:39;;;;;;;10.85;3.47;;;18.40;70.20;;;;;;10374180;28;20065;-60
2021/11/15 11:26:49;;;;;;;8.35;3.70;;;18.40;70.30;;;;;;10371709;28;20073;-60
2021/11/15 11:31:55;;;;;;;5.57;3.53;;;18.50;69.60;;;;;;10361349;28;20042;-60
2021/11/15 11:36:56;;;;;;;10.25;2.97;;;18.40;69.30;;;;;;10368105;28;20323;-60
2021/11/15 11:41:59;;;;;;;8.95;3.50;;;18.50;70.00;;;;;;10374848;28;20026;-67
2021/11/15 11:47:05;;;;;;;10.85;4.00;;;18.40;70.00;;;;;;10374218;28;20085;-60
2021/11/15 11:52:10;;;;;;;9.13;3.13;;;18.50;70.20;;;;;;10374386;28;20033;-61
2021/11/15 11:57:21;;;;;;;13.57;3.45;;;18.50;70.00;;;;;;10385431;28;20052;-61
2021/11/15 12:02:25;;;;;;;10.05;3.00;;;18.50;70.80;;;;;;10364382;28;20032;-59
2021/11/15 12:07:46;;;;;;;10.73;3.55;;;18.40;70.20;;;;;;10368318;28;20038;-61
2021/11/15 12:12:53;;;;;;;11.95;3.78;;;18.40;70.20;;;;;;10349940;28;20109;-62
2021/11/15 12:18:06;;;;;;;9.75;3.92;;;18.30;70.30;;;;;;10333389;28;20041;-60
2021/11/15 12:23:13;;;;;;;9.02;3.95;;;18.40;70.20;;;;;;10342069;28;20069;-59
2021/11/15 12:28:30;;;;;;;11.18;4.47;;;18.50;70.20;;;;;;10356256;28;20125;-60
2021/11/15 12:33:37;;;;;;;9.32;3.80;;;18.50;70.30;;;;;;10353892;28;20034;-60
2021/11/15 12:38:54;;;;;;;13.57;4.22;;;18.40;70.50;;;;;;10355636;28;20108;-61
2021/11/15 12:44:08;;;;;;;6.50;3.45;;;18.40;70.60;;;;;;10372656;28;20142;-60
2021/11/15 12:49:20;;;;;;;12.52;3.22;;;18.30;70.40;;;;;;10371504;28;20070;-60
2021/11/15 12:54:20;;;;;;;8.10;3.95;;;18.30;70.20;;;;;;10372747;28;20374;-60
2021/11/15 12:59:21;;;;;;;7.57;3.40;;;18.20;70.10;;;;;;10371380;28;20101;-60
2021/11/15 13:04:23;;;;;;;6.35;3.25;;;18.30;69.80;;;;;;10372294;28;20113;-60
2021/11/15 13:09:24;;;;;;;5.72;2.72;;;18.30;69.60;;;;;;10370132;28;20072;-60
2021/11/15 13:14:26;;;;;;;5.45;3.33;;;18.40;69.40;;;;;;10356091;28;20037;-61
2021/11/15 13:19:26;;;;;;;12.70;4.20;;;18.40;69.20;;;;;;10372182;28;20033;-61
2021/11/15 13:24:27;;;;;;;10.18;3.95;;;18.40;69.20;;;;;;10369275;28;20104;-60
2021/11/15 13:29:28;;;;;;;11.05;4.10;;;18.40;68.90;;;;;;10365885;28;20386;-58
2021/11/15 13:34:29;;;;;;;13.93;4.63;;;18.50;68.50;;;;;;10354295;28;20038;-61
2021/11/15 13:39:30;;;;;;;18.25;5.18;;;18.50;68.80;;;;;;10385384;28;20160;-60
2021/11/15 13:44:31;;;;;;;19.58;5.82;;;18.50;69.40;;;;;;10383340;28;20036;-60
2021/11/15 13:49:34;;;;;;;23.35;5.57;;;18.50;69.80;;;;;;10368834;28;20053;-61
2021/11/15 13:54:42;;;;;;;21.63;5.97;;;18.40;69.60;;;;;;10369409;28;20115;-60
2021/11/15 13:59:43;;;;;;;17.15;4.57;;;18.40;69.40;;;;;;10369398;28;20370;-60
2021/11/15 14:04:44;;;;;;;21.80;6.25;;;18.40;69.40;;;;;;10370650;28;20030;-61
2021/11/15 14:09:45;;;;;;;25.38;6.35;;;18.40;69.40;;;;;;10358231;28;20142;-60
2021/11/15 14:14:46;;;;;;;19.85;6.38;;;18.40;70.10;;;;;;10366913;28;20040;-61
2021/11/15 14:19:46;;;;;;;24.65;6.65;;;18.40;70.20;;;;;;10368407;28;20378;-61
2021/11/15 14:24:48;;;;;;;29.88;6.30;;;18.40;70.70;;;;;;10354448;28;20029;-59
2021/11/15 14:29:50;;;;;;;31.42;7.13;;;18.40;70.90;;;;;;10356908;28;20041;-58
2021/11/15 14:34:51;;;;;;;28.30;7.30;;;18.30;71.10;;;;;;10374178;28;20026;-59
2021/11/15 14:39:52;;;;;;;25.38;6.10;;;18.30;71.50;;;;;;10374041;28;20030;-60
2021/11/15 14:44:52;;;;;;;23.42;7.50;;;18.30;71.60;;;;;;10376613;28;20056;-60
2021/11/15 14:49:55;;;;;;;31.45;6.20;;;18.10;70.80;;;;;;10376371;28;20050;-61
2021/11/15 14:54:55;;;;;;;27.67;6.75;;;18.10;71.00;;;;;;10375935;28;20521;-61
2021/11/15 14:59:56;;;;;;;28.02;6.95;;;18.00;70.40;;;;;;10374926;28;20022;-61
2021/11/15 15:04:57;;;;;;;33.30;7.53;;;18.10;70.30;;;;;;10366852;28;20030;-61
2021/11/15 15:09:59;;;;;;;31.60;7.95;;;18.20;70.50;;;;;;10374329;28;20033;-60
2021/11/15 15:15:02;;;;;;;37.72;9.38;;;18.30;70.20;;;;;;10365971;28;20026;-60
2021/11/15 15:20:06;;;;;;;33.25;8.77;;;18.40;70.30;;;;;;10368600;28;20398;-60
2021/11/15 15:25:07;;;;;;;20.65;6.90;;;18.30;71.00;;;;;;10380407;28;20028;-59
2021/11/15 15:30:10;;;;;;;20.05;5.80;;;18.20;70.80;;;;;;10371991;28;20108;-61
2021/11/15 15:35:11;;;;;;;30.17;6.95;;;18.20;71.30;;;;;;10368590;28;20035;-62
2021/11/15 15:40:18;;;;;;;29.00;7.30;;;18.20;71.40;;;;;;10364137;28;20042;-62
2021/11/15 15:45:19;;;;;;;34.88;7.25;;;18.10;71.80;;;;;;10362494;28;20064;-61
2021/11/15 15:50:20;;;;;;;31.70;6.78;;;18.10;71.10;;;;;;10371695;28;20494;-60
2021/11/15 15:55:21;;;;;;;29.42;7.75;;;18.20;70.80;;;;;;10371544;28;20022;-60
2021/11/15 16:00:22;;;;;;;27.55;7.53;;;18.20;70.50;;;;;;10366044;28;20383;-60
2021/11/15 16:05:32;;;;;;;24.58;6.78;;;18.20;70.50;;;;;;10373225;28;20393;-61
2021/11/15 16:20:58;;;;;;;24.45;5.90;;;18.10;71.00;;;;;;10354683;28;20038;-61
2021/11/15 16:25:58;;;;;;;21.50;5.72;;;18.10;71.60;;;;;;10361992;28;20030;-61
2021/11/15 16:31:00;;;;;;;24.15;5.97;;;18.20;70.90;;;;;;10363227;28;20037;-60
2021/11/15 16:36:01;;;;;;;21.67;5.43;;;18.20;70.30;;;;;;10370919;28;20382;-60
2021/11/15 16:41:03;;;;;;;20.33;8.30;;;18.30;69.60;;;;;;10372800;28;20030;-61
2021/11/15 16:46:04;;;;;;;42.53;24.90;;;18.40;69.30;;;;;;10372625;28;20056;-62
2021/11/15 16:51:05;;;;;;;32.25;18.77;;;18.40;70.20;;;;;;10371163;28;20046;-61
2021/11/15 16:56:06;;;;;;;29.90;16.13;;;18.50;69.50;;;;;;10372250;28;20064;-60
2021/11/15 17:01:10;;;;;;;25.02;15.93;;;18.60;70.80;;;;;;10371892;28;20040;-61
2021/11/15 17:06:12;;;;;;;27.05;14.57;;;18.60;70.90;;;;;;10371001;28;20037;-61
2021/11/15 17:11:17;;;;;;;26.42;14.02;;;18.70;71.30;;;;;;10369148;28;20083;-61
2021/11/15 17:16:20;;;;;;;20.75;12.38;;;18.70;70.30;;;;;;10371197;28;20034;-62
2021/11/15 17:21:24;;;;;;;22.48;13.68;;;18.70;70.50;;;;;;10369398;28;20105;-59
2021/11/15 17:26:29;;;;;;;19.50;12.48;;;18.60;69.90;;;;;;10368491;28;20095;-60
2021/11/15 17:31:31;;;;;;;23.65;12.38;;;18.60;69.20;;;;;;10350260;28;20034;-59
2021/11/15 17:36:32;;;;;;;25.05;13.95;;;18.70;69.20;;;;;;10356555;28;20038;-58
2021/11/15 17:41:33;;;;;;;20.35;11.52;;;18.80;69.10;;;;;;10355689;28;20521;-59
2021/11/15 17:46:38;;;;;;;21.42;11.60;;;18.80;69.10;;;;;;10360779;28;20045;-59
2021/11/15 17:51:44;;;;;;;28.42;11.75;;;18.80;69.40;;;;;;10371360;28;20471;-58
2021/11/15 17:56:51;;;;;;;21.92;11.35;;;18.70;69.90;;;;;;10370978;28;20131;-59
2021/11/15 18:01:52;;;;;;;22.23;11.63;;;18.60;70.40;;;;;;10378582;28;20022;-60
2021/11/15 18:06:54;;;;;;;17.10;10.55;;;18.60;70.70;;;;;;10378506;28;20113;-59
2021/11/15 18:11:54;;;;;;;21.05;10.95;;;18.40;70.70;;;;;;10373703;28;20061;-58
2021/11/15 18:16:57;;;;;;;21.48;12.13;;;18.40;70.70;;;;;;10366760;28;20040;-60
2021/11/15 18:21:59;;;;;;;18.40;9.88;;;18.40;70.70;;;;;;10346015;28;20036;-60
2021/11/15 18:27:00;;;;;;;20.77;9.25;;;18.40;70.20;;;;;;10339746;28;20017;-60
2021/11/15 18:32:01;;;;;;;24.10;10.07;;;18.40;70.40;;;;;;10358187;28;20034;-64
2021/11/15 18:37:04;;;;;;;25.98;10.88;;;18.30;70.90;;;;;;10351990;28;20034;-60
2021/11/15 18:42:06;;;;;;;20.20;11.90;;;18.40;71.10;;;;;;10368386;28;20018;-60
2021/11/15 18:47:12;;;;;;;19.38;9.43;;;18.40;70.60;;;;;;10355110;28;20081;-60
2021/11/15 18:52:12;;;;;;;16.70;10.10;;;18.50;70.80;;;;;;10344739;28;20045;-59
2021/11/15 18:57:15;;;;;;;17.77;10.20;;;18.40;71.20;;;;;;10357416;28;20041;-57
2021/11/15 19:02:16;;;;;;;18.88;8.88;;;18.50;71.40;;;;;;10352148;28;20026;-60
2021/11/15 19:07:21;;;;;;;14.57;10.13;;;18.50;71.50;;;;;;10365363;28;20417;-60
2021/11/15 19:12:28;;;;;;;14.15;8.98;;;18.40;71.30;;;;;;10356501;28;20022;-60
2021/11/15 19:17:28;;;;;;;14.27;8.18;;;18.30;71.60;;;;;;10351488;28;20039;-60
2021/11/15 19:22:29;;;;;;;14.15;8.52;;;18.30;71.80;;;;;;10348959;28;20037;-60
2021/11/15 19:27:32;;;;;;;15.98;8.85;;;18.30;71.50;;;;;;10342942;28;20033;-59
2021/11/15 19:32:33;;;;;;;15.38;9.07;;;18.30;71.00;;;;;;10370794;28;20038;-60
2021/11/15 19:37:36;;;;;;;13.38;7.70;;;18.30;70.80;;;;;;10373136;28;20052;-60
2021/11/15 19:42:44;;;;;;;15.27;7.88;;;18.40;70.40;;;;;;10368079;28;20038;-58
2021/11/15 19:47:45;;;;;;;17.30;8.88;;;18.30;70.10;;;;;;10369066;28;20054;-58
2021/11/15 19:52:47;;;;;;;12.77;7.65;;;18.30;70.30;;;;;;10371931;28;20022;-58
2021/11/15 19:57:48;;;;;;;14.00;8.98;;;18.30;70.10;;;;;;10371554;28;20034;-57
2021/11/15 20:02:54;;;;;;;18.05;9.68;;;18.40;70.20;;;;;;10373902;28;20524;-58
2021/11/15 20:07:56;;;;;;;13.98;8.07;;;18.40;69.90;;;;;;10351962;28;20108;-57
2021/11/15 20:12:59;;;;;;;21.95;7.93;;;18.50;69.70;;;;;;10358184;28;20383;-57
2021/11/15 20:18:00;;;;;;;17.00;7.90;;;18.50;69.80;;;;;;10331375;28;20479;-57
2021/11/15 20:23:02;;;;;;;16.33;7.70;;;18.40;70.00;;;;;;10344637;28;20069;-56
2021/11/15 20:28:03;;;;;;;14.55;8.43;;;18.30;70.20;;;;;;10354402;28;20081;-60
2021/11/15 20:33:06;;;;;;;11.88;7.43;;;18.30;71.40;;;;;;10361056;28;20061;-56
2021/11/15 20:38:08;;;;;;;14.10;8.23;;;18.20;70.50;;;;;;10351510;28;20037;-57
2021/11/15 20:43:13;;;;;;;16.38;7.80;;;18.10;70.70;;;;;;10350166;28;20157;-55
2021/11/15 20:48:16;;;;;;;14.73;8.18;;;18.00;70.90;;;;;;10353794;28;20717;-57
2021/11/15 20:53:20;;;;;;;12.77;7.72;;;17.90;71.00;;;;;;10339107;28;20057;-56
2021/11/15 20:58:22;;;;;;;16.33;8.38;;;17.90;71.20;;;;;;10328299;28;20023;-57
2021/11/15 21:03:29;;;;;;;14.90;7.65;;;17.80;71.20;;;;;;10337964;28;20056;-57
2021/11/15 21:08:30;;;;;;;12.65;7.07;;;17.80;71.40;;;;;;10360867;28;20038;-57
2021/11/15 21:13:31;;;;;;;15.52;7.72;;;17.70;71.40;;;;;;10360445;28;20034;-57
2021/11/15 21:18:48;;;;;;;10.88;6.55;;;17.70;71.50;;;;;;10372346;28;20031;-57
2021/11/15 21:23:53;;;;;;;13.05;8.25;;;17.70;71.60;;;;;;10372091;28;20045;-58
2021/11/15 21:28:55;;;;;;;12.57;7.25;;;17.60;71.60;;;;;;10370849;28;20323;-58
2021/11/15 21:33:56;;;;;;;15.73;8.00;;;17.60;71.70;;;;;;10375085;28;20113;-57
2021/11/15 21:38:57;;;;;;;10.80;7.32;;;17.50;71.60;;;;;;10380118;28;20109;-58
2021/11/15 21:43:58;;;;;;;13.60;7.47;;;17.50;71.90;;;;;;10365777;28;20133;-58
2021/11/15 21:48:59;;;;;;;9.63;7.05;;;17.50;71.70;;;;;;10339932;28;20445;-58
2021/11/15 21:54:02;;;;;;;12.70;7.80;;;17.50;71.80;;;;;;10379361;28;20034;-58
2021/11/15 21:59:02;;;;;;;13.27;6.93;;;17.40;71.80;;;;;;10379477;28;20033;-58
2021/11/15 22:04:07;;;;;;;11.30;7.07;;;17.40;71.80;;;;;;10378983;28;20038;-58
2021/11/15 22:09:08;;;;;;;11.10;7.47;;;17.40;71.80;;;;;;10379010;28;20034;-56
2021/11/15 22:14:09;;;;;;;12.80;6.85;;;17.40;71.80;;;;;;10378674;28;20171;-58
2021/11/15 22:19:10;;;;;;;13.00;7.30;;;17.40;71.70;;;;;;10378561;28;20030;-58
2021/11/15 22:24:10;;;;;;;12.63;7.70;;;17.50;71.50;;;;;;10371138;28;20082;-56
2021/11/15 22:29:11;;;;;;;11.32;7.28;;;17.50;71.20;;;;;;10352214;28;20490;-58
2021/11/15 22:34:12;;;;;;;10.13;6.93;;;17.50;71.00;;;;;;10377565;28;20061;-58
2021/11/15 22:39:13;;;;;;;10.30;6.28;;;17.60;70.80;;;;;;10377776;28;20026;-57
2021/11/15 22:44:14;;;;;;;9.27;6.60;;;17.70;70.60;;;;;;10362440;28;20030;-58
2021/11/15 22:49:14;;;;;;;10.38;7.03;;;17.70;70.60;;;;;;10344176;28;20050;-58
2021/11/15 22:54:15;;;;;;;11.38;7.40;;;17.60;70.60;;;;;;10359378;28;20437;-57
2021/11/15 22:59:16;;;;;;;15.70;6.97;;;17.70;70.40;;;;;;10377146;28;20080;-58
2021/11/15 23:04:17;;;;;;;9.93;6.47;;;17.70;70.30;;;;;;10376307;28;20034;-58
2021/11/15 23:09:17;;;;;;;10.95;6.20;;;17.70;70.30;;;;;;10376587;28;20474;-59
2021/11/15 23:14:18;;;;;;;9.65;6.45;;;17.70;70.50;;;;;;10354856;28;20520;-57
2021/11/15 23:19:19;;;;;;;10.45;6.57;;;17.60;70.60;;;;;;10335939;28;20068;-57
2021/11/15 23:24:21;;;;;;;9.23;6.78;;;17.60;70.80;;;;;;10338469;28;20567;-58
2021/11/15 23:29:21;;;;;;;8.63;5.65;;;17.60;70.50;;;;;;10348067;28;20030;-58
2021/11/15 23:34:23;;;;;;;9.52;5.85;;;17.70;70.30;;;;;;10375451;28;20030;-56
2021/11/15 23:39:23;;;;;;;7.82;5.68;;;17.70;70.20;;;;;;10375713;28;20113;-58
2021/11/15 23:44:24;;;;;;;9.40;6.50;;;17.70;70.20;;;;;;10372454;28;20124;-58
2021/11/15 23:49:25;;;;;;;8.60;5.95;;;17.70;69.90;;;;;;10333254;28;20050;-58
2021/11/15 23:54:26;;;;;;;11.25;5.50;;;17.70;69.90;;;;;;10338910;28;20030;-58
2021/11/15 23:59:27;;;;;;;9.00;5.65;;;17.70;69.80;;;;;;10334826;28;20037;-57
